Time;durP1;ratioP1;P1;durP2;ratioP2;P2;SDS_P1;SDS_P2;PMS_P1;PMS_P2;Temp;Humidity;BMP_temperature;BMP_pressure;BME280_temperature;BME280_humidity;BME280_pressure;Samples;Min_cycle;Max_cycle;Signal;HPM_P1;HPM_P2
2021/08/25 00:04:42;;;;;;;11.45;7.08;;;;;;;10.78;71.38;100537.67;254315;1104;115597;-66
2021/08/25 00:09:45;;;;;;;8.78;5.40;;;;;;;10.54;71.02;100538.47;254676;1104;115173;-66
2021/08/25 00:14:48;;;;;;;9.85;4.38;;;;;;;10.29;71.62;100535.74;254602;1103;115941;-67
2021/08/25 00:19:51;;;;;;;11.68;4.65;;;;;;;10.05;71.41;100531.94;254289;1104;114851;-68
2021/08/25 00:24:54;;;;;;;12.30;6.50;;;;;;;9.90;71.62;100535.88;254310;1104;116198;-66
2021/08/25 00:30:02;;;;;;;11.08;5.28;;;;;;;9.75;71.70;100531.65;254247;1104;116218;-67
2021/08/25 00:35:06;;;;;;;;;;;;;;;9.60;72.22;100522.26;254219;1104;116076;-67
2021/08/25 00:40:10;;;;;;;6.88;4.58;;;;;;;9.47;72.82;100522.31;255890;1101;103250;-68
2021/08/25 00:45:13;;;;;;;9.85;4.63;;;;;;;9.39;72.41;100523.34;254210;1102;115789;-66
2021/08/25 00:50:16;;;;;;;16.63;5.65;;;;;;;9.33;72.81;100517.00;255959;1101;115836;-67
2021/08/25 00:55:22;;;;;;;7.75;4.58;;;;;;;9.27;72.77;100506.36;254112;1104;115435;-68
2021/08/25 01:00:25;;;;;;;7.50;4.10;;;;;;;9.22;72.59;100511.48;254726;1103;115601;-67
2021/08/25 01:05:30;;;;;;;6.63;4.50;;;;;;;9.04;72.66;100507.63;254265;1103;116509;-68
2021/08/25 01:10:34;;;;;;;4.73;3.53;;;;;;;8.90;73.12;100502.50;254342;1104;116037;-67
2021/08/25 01:15:40;;;;;;;7.65;4.35;;;;;;;8.80;73.45;100502.12;255309;1104;119023;-66
2021/08/25 01:20:48;;;;;;;6.07;4.10;;;;;;;8.65;73.19;100499.64;255832;1104;116111;-70
2021/08/25 01:25:58;;;;;;;4.87;4.03;;;;;;;8.61;73.93;100496.56;254295;1095;204225;-66
2021/08/25 01:31:02;;;;;;;4.70;3.20;;;;;;;8.59;74.13;100500.45;255508;1101;114866;-65
2021/08/25 01:36:12;;;;;;;7.33;4.08;;;;;;;8.53;73.80;100494.13;254989;1102;116064;-65
2021/08/25 01:41:20;;;;;;;10.23;4.28;;;;;;;8.52;73.73;100499.64;255469;1101;115455;-65
2021/08/25 01:46:29;;;;;;;9.28;4.30;;;;;;;8.43;73.34;100486.55;255087;1102;115757;-65
2021/08/25 01:51:33;;;;;;;8.53;4.00;;;;;;;8.30;74.27;100483.82;255242;1102;114904;-66
2021/08/25 01:56:36;;;;;;;10.05;4.40;;;;;;;8.19;74.09;100486.27;254493;1104;115007;-65
2021/08/25 02:01:39;;;;;;;4.78;3.20;;;;;;;8.06;74.62;100471.92;254375;1104;116503;-67
2021/08/25 02:06:42;;;;;;;7.05;3.25;;;;;;;8.02;74.75;100478.65;254365;1097;115968;-65
2021/08/25 02:11:46;;;;;;;7.95;4.23;;;;;;;8.00;74.73;100463.94;254953;1104;116914;-68
2021/08/25 02:16:50;;;;;;;7.93;4.28;;;;;;;7.95;74.75;100464.53;255260;1101;115330;-67
2021/08/25 02:21:53;;;;;;;6.95;3.70;;;;;;;7.93;74.81;100455.98;254477;1101;116904;-67
2021/08/25 02:26:56;;;;;;;8.60;5.00;;;;;;;7.91;74.93;100451.88;255308;1101;115733;-66
2021/08/25 02:31:58;;;;;;;8.35;4.00;;;;;;;7.87;75.31;100453.30;254235;1101;117091;-69
2021/08/25 02:37:02;;;;;;;12.23;3.65;;;;;;;7.83;74.80;100452.05;254627;1101;116284;-65
2021/08/25 02:42:05;;;;;;;8.85;4.33;;;;;;;7.85;74.84;100447.36;255349;1102;116340;-66
2021/08/25 02:47:11;;;;;;;8.10;4.05;;;;;;;7.81;75.33;100440.81;255165;1101;116022;-66
2021/08/25 02:52:15;;;;;;;5.30;3.83;;;;;;;7.68;74.92;100430.96;256064;1097;117010;-66
2021/08/25 02:57:18;;;;;;;8.58;3.88;;;;;;;7.51;74.89;100435.80;257305;1103;116035;-66
2021/08/25 03:02:21;;;;;;;4.10;3.43;;;;;;;7.44;75.45;100429.64;256875;1104;116264;-67
2021/08/25 03:07:24;;;;;;;6.47;3.53;;;;;;;7.40;75.15;100434.52;257217;1103;115072;-66
2021/08/25 03:12:27;;;;;;;5.55;3.63;;;;;;;7.36;75.44;100421.84;257125;1104;116117;-66
2021/08/25 03:17:30;;;;;;;4.17;3.60;;;;;;;7.27;74.69;100428.35;257127;1104;116561;-66
2021/08/25 03:22:34;;;;;;;8.68;3.33;;;;;;;7.19;75.06;100420.55;256555;1101;117817;-68
2021/08/25 03:27:37;;;;;;;7.23;3.60;;;;;;;7.19;75.32;100421.37;254681;1102;115964;-66
2021/08/25 03:32:41;;;;;;;7.33;4.18;;;;;;;7.11;74.84;100410.91;256135;1096;115619;-66
2021/08/25 03:37:43;;;;;;;7.05;4.30;;;;;;;7.00;75.00;100411.48;254347;1101;117681;-66
2021/08/25 03:42:49;;;;;;;5.13;3.43;;;;;;;6.92;75.35;100409.80;254436;1102;115577;-65
2021/08/25 03:47:52;;;;;;;6.85;3.60;;;;;;;6.88;75.54;100402.42;254489;1101;116060;-68
2021/08/25 03:52:55;;;;;;;10.10;3.53;;;;;;;6.89;76.27;100404.88;254161;1102;116550;-69
2021/08/25 03:57:58;;;;;;;11.40;5.25;;;;;;;6.92;76.03;100404.49;254319;1101;116305;-67
2021/08/25 04:03:01;;;;;;;8.00;4.05;;;;;;;6.93;76.30;100406.13;254188;1101;116931;-68
2021/08/25 04:08:05;;;;;;;11.30;5.70;;;;;;;6.89;76.19;100410.18;254735;1101;116610;-67
2021/08/25 04:13:08;;;;;;;9.55;4.55;;;;;;;6.94;75.48;100399.82;254486;1097;116371;-69
2021/08/25 04:18:11;;;;;;;8.10;4.58;;;;;;;6.89;76.33;100399.58;254580;1101;116610;-70
2021/08/25 04:23:14;;;;;;;8.90;3.80;;;;;;;6.87;76.12;100396.30;255100;1101;115389;-68
2021/08/25 04:28:18;;;;;;;7.70;4.40;;;;;;;6.90;75.99;100395.09;254705;1096;115630;-68
2021/08/25 04:33:21;;;;;;;4.55;2.95;;;;;;;6.96;76.12;100394.33;255066;1101;116636;-68
2021/08/25 04:38:23;;;;;;;4.83;3.65;;;;;;;7.16;76.76;100389.13;254128;1102;116280;-67
2021/08/25 04:43:27;;;;;;;5.78;4.00;;;;;;;7.43;76.84;100383.73;254432;1104;116041;-67
2021/08/25 04:48:31;;;;;;;34.60;6.90;;;;;;;7.87;77.42;100386.94;254648;1103;117706;-66
2021/08/25 04:53:33;;;;;;;9.53;5.55;;;;;;;8.30;78.00;100382.06;254392;1102;115718;-68
2021/08/25 04:58:36;;;;;;;13.23;5.98;;;;;;;8.68;78.24;100388.42;256067;1104;115465;-66
2021/08/25 05:03:39;;;;;;;9.37;4.73;;;;;;;9.10;78.67;100388.96;256508;1103;114631;-66
2021/08/25 05:08:43;;;;;;;9.40;5.67;;;;;;;9.46;77.84;100375.13;255778;1104;116033;-67
2021/08/25 05:13:47;;;;;;;7.98;5.20;;;;;;;9.66;77.88;100375.83;257499;1104;117659;-66
2021/08/25 05:18:50;;;;;;;9.20;5.83;;;;;;;9.85;78.04;100366.09;255708;1097;115398;-66
2021/08/25 05:23:54;;;;;;;11.20;5.93;;;;;;;9.90;77.58;100368.11;256533;1101;114954;-65
2021/08/25 05:28:57;;;;;;;5.80;4.43;;;;;;;10.05;77.39;100360.64;257204;1101;114886;-64
2021/08/25 05:34:01;;;;;;;12.50;6.43;;;;;;;10.17;77.19;100366.08;255917;1096;204486;-66
2021/08/25 05:39:04;;;;;;;13.63;5.48;;;;;;;10.37;77.11;100364.94;254252;1103;118430;-65
2021/08/25 05:44:08;;;;;;;7.30;5.18;;;;;;;10.58;77.23;100354.91;256198;1104;115433;-65
2021/08/25 05:49:11;;;;;;;10.10;5.63;;;;;;;10.77;77.63;100356.55;255115;1101;115860;-65
2021/08/25 05:54:14;;;;;;;8.50;4.83;;;;;;;10.93;77.13;100352.50;256143;1102;116210;-66
2021/08/25 05:59:17;;;;;;;14.33;5.10;;;;;;;11.07;77.11;100356.64;254839;1101;115317;-66
2021/08/25 06:04:19;;;;;;;7.50;4.28;;;;;;;11.24;76.91;100343.52;254473;1101;116092;-67
2021/08/25 06:09:21;;;;;;;8.15;4.98;;;;;;;11.39;77.08;100334.07;254479;1101;116247;-67
2021/08/25 06:14:23;;;;;;;10.25;5.75;;;;;;;11.45;76.86;100330.50;254461;1102;115342;-66
2021/08/25 06:19:28;;;;;;;7.50;4.60;;;;;;;11.59;76.99;100336.49;254863;1103;115498;-68
2021/08/25 06:24:31;;;;;;;5.93;3.90;;;;;;;11.74;76.86;100342.22;254329;1101;115083;-68
2021/08/25 06:29:34;;;;;;;7.93;5.00;;;;;;;11.97;76.82;100338.01;254911;1101;115776;-65
2021/08/25 06:34:39;;;;;;;7.50;5.60;;;;;;;12.13;76.81;100338.17;254148;1104;115963;-67
2021/08/25 06:39:41;;;;;;;5.70;4.55;;;;;;;12.30;76.48;100330.28;254335;1101;114640;-66
2021/08/25 06:44:44;;;;;;;5.48;4.18;;;;;;;12.52;76.67;100335.89;254256;1101;114912;-66
2021/08/25 06:49:47;;;;;;;8.10;4.90;;;;;;;12.89;76.46;100333.73;254485;1096;115322;-66
2021/08/25 06:54:50;;;;;;;6.08;4.03;;;;;;;13.64;76.38;100322.95;254207;1101;115294;-66
2021/08/25 06:59:53;;;;;;;8.20;3.83;;;;;;;14.30;74.79;100315.21;254159;1102;115526;-66
2021/08/25 07:04:56;;;;;;;8.67;4.10;;;;;;;14.84;74.31;100324.33;254504;1101;114715;-65
2021/08/25 07:09:59;;;;;;;6.48;4.40;;;;;;;15.04;73.67;100310.34;256166;1101;116017;-67
2021/08/25 07:15:02;;;;;;;5.38;4.03;;;;;;;15.16;73.22;100298.42;257284;1101;115253;-67
2021/08/25 07:20:06;;;;;;;5.23;3.77;;;;;;;15.50;72.53;100301.75;257242;1101;115394;-67
2021/08/25 07:25:13;;;;;;;11.15;5.08;;;;;;;16.23;72.48;100301.32;255976;1096;115620;-66
2021/08/25 07:30:16;;;;;;;11.18;2.80;;;;;;;17.01;71.42;100295.09;254168;1104;116048;-67
2021/08/25 07:35:18;;;;;;;5.63;3.85;;;;;;;17.61;70.72;100293.63;254066;1104;116441;-66
2021/08/25 07:40:21;;;;;;;6.35;3.43;;;;;;;18.14;69.64;100289.63;254046;1097;115635;-66
2021/08/25 07:45:24;;;;;;;7.60;3.70;;;;;;;18.59;68.87;100279.04;254191;1102;114882;-67
2021/08/25 07:50:26;;;;;;;4.50;3.40;;;;;;;19.06;67.86;100276.72;254259;1097;116216;-68
2021/08/25 07:55:30;;;;;;;5.30;3.40;;;;;;;19.15;65.85;100282.36;254407;1101;114875;-67
2021/08/25 08:00:33;;;;;;;4.55;3.50;;;;;;;18.88;65.14;100277.34;254644;1102;115786;-66
2021/08/25 08:05:36;;;;;;;5.53;2.73;;;;;;;18.67;64.65;100267.69;253991;1101;116853;-68
2021/08/25 08:10:38;;;;;;;6.33;3.15;;;;;;;18.83;65.07;100253.86;254607;1104;116247;-66
2021/08/25 08:15:41;;;;;;;6.70;3.48;;;;;;;18.62;64.08;100246.13;254201;1102;115975;-66
2021/08/25 08:20:44;;;;;;;8.45;3.83;;;;;;;18.12;63.84;100251.31;254379;1104;116616;-66
2021/08/25 08:25:48;;;;;;;5.65;3.38;;;;;;;17.78;64.04;100242.97;254228;1101;117114;-67
2021/08/25 08:30:52;;;;;;;5.30;2.60;;;;;;;17.58;64.18;100242.94;255089;1101;116118;-67
2021/08/25 08:35:56;;;;;;;6.18;3.48;;;;;;;17.42;64.24;100241.32;254723;1101;115850;-67
2021/08/25 08:40:59;;;;;;;6.53;4.28;;;;;;;17.32;63.96;100235.91;254155;1104;116071;-67
2021/08/25 08:46:02;;;;;;;6.38;3.58;;;;;;;17.38;63.74;100237.54;254223;1102;116032;-64
2021/08/25 08:51:06;;;;;;;5.60;2.93;;;;;;;17.58;63.44;100221.38;254074;1102;115789;-68
2021/08/25 08:56:10;;;;;;;6.10;2.55;;;;;;;18.06;63.90;100211.93;256261;1101;116552;-65
2021/08/25 09:01:13;;;;;;;3.43;3.05;;;;;;;18.41;62.78;100202.13;256535;1102;115166;-65
2021/08/25 09:06:16;;;;;;;2.90;2.43;;;;;;;18.12;62.46;100201.94;256538;1101;115569;-68
2021/08/25 09:11:19;;;;;;;2.77;1.77;;;;;;;17.87;62.26;100192.00;256245;1104;115260;-67
2021/08/25 09:16:33;;;;;;;4.90;3.20;;;;;;;17.60;61.93;100186.88;254308;1103;115458;-66
2021/08/25 09:22:00;;;;;;;5.68;3.60;;;;;;;17.49;62.50;100191.45;257494;1101;114578;-66
2021/08/25 09:27:08;;;;;;;5.15;2.58;;;;;;;17.56;62.81;100180.40;257478;1101;115585;-66
2021/08/25 09:32:20;;;;;;;2.73;1.93;;;;;;;17.54;62.33;100184.44;256629;1097;115654;-66
2021/08/25 09:37:24;;;;;;;3.98;2.18;;;;;;;17.41;62.10;100177.72;255945;1101;115985;-66
2021/08/25 09:42:43;;;;;;;6.38;2.75;;;;;;;17.37;62.32;100171.24;254217;1103;116604;-66
2021/08/25 09:47:52;;;;;;;3.53;2.23;;;;;;;17.40;61.80;100165.32;256011;1103;115629;-67
2021/08/25 09:52:56;;;;;;;5.70;2.03;;;;;;;17.44;61.08;100161.79;256264;1101;115265;-65
2021/08/25 09:58:01;;;;;;;3.88;2.08;;;;;;;17.61;61.17;100155.34;256109;1101;115747;-67
2021/08/25 10:03:05;;;;;;;3.53;1.43;;;;;;;17.80;60.86;100141.04;256741;1101;116030;-66
2021/08/25 10:08:08;;;;;;;4.27;2.03;;;;;;;17.97;60.38;100138.05;255442;1102;115649;-67
2021/08/25 10:13:11;;;;;;;2.25;1.53;;;;;;;18.15;60.17;100144.73;254470;1101;116375;-65
2021/08/25 10:18:42;;;;;;;2.40;1.50;;;;;;;18.29;59.89;100136.88;255423;1103;116142;-66
2021/08/25 10:23:56;;;;;;;1.28;0.70;;;;;;;18.35;59.96;100122.26;255451;1103;115928;-70
2021/08/25 10:29:10;;;;;;;1.60;1.50;;;;;;;18.48;59.16;100108.98;255523;1103;116384;-67
2021/08/25 10:34:38;;;;;;;1.20;0.87;;;;;;;19.18;58.59;100093.44;255925;1101;115973;-67
2021/08/25 10:39:43;;;;;;;2.15;1.50;;;;;;;19.20;57.84;100085.05;254847;1101;136308;-67
2021/08/25 10:44:47;;;;;;;1.53;1.13;;;;;;;19.10;57.92;100077.82;254999;1096;115246;-67
2021/08/25 10:49:49;;;;;;;1.50;1.05;;;;;;;19.14;57.19;100075.36;254687;1101;114850;-68
2021/08/25 10:54:52;;;;;;;1.05;1.03;;;;;;;19.26;57.54;100066.90;255513;1102;115408;-68
2021/08/25 11:00:12;;;;;;;3.03;1.30;;;;;;;19.42;56.97;100054.84;255626;1102;115195;-66
2021/08/25 11:05:15;;;;;;;0.88;0.88;;;;;;;20.12;56.42;100041.65;255718;1104;115349;-67
2021/08/25 11:10:23;;;;;;;1.90;1.20;;;;;;;20.19;55.27;100034.76;254256;1101;115113;-66
2021/08/25 11:15:32;;;;;;;1.58;0.88;;;;;;;20.31;55.19;100033.54;254832;1104;116062;-68
2021/08/25 11:20:35;;;;;;;1.90;1.77;;;;;;;19.86;53.71;100027.63;256974;1102;115703;-67
2021/08/25 11:25:52;;;;;;;1.33;1.23;;;;;;;19.63;54.58;100021.11;257359;1104;115476;-68
2021/08/25 11:30:56;;;;;;;1.87;1.63;;;;;;;19.66;54.04;100017.03;257323;1101;115175;-68
2021/08/25 11:36:03;;;;;;;8.23;1.40;;;;;;;20.26;55.40;99998.41;256603;1101;115714;-69
2021/08/25 11:41:06;;;;;;;3.18;1.70;;;;;;;20.65;54.61;99976.47;255187;1101;115314;-67
2021/08/25 11:46:10;;;;;;;2.10;1.55;;;;;;;20.88;53.47;99983.67;254496;1101;115627;-67
2021/08/25 11:51:13;;;;;;;2.68;1.20;;;;;;;20.85;53.34;99978.84;254299;1101;115924;-69
2021/08/25 11:56:16;;;;;;;1.93;1.80;;;;;;;21.00;53.24;99978.59;254183;1102;115607;-67
2021/08/25 12:01:26;;;;;;;2.60;1.95;;;;;;;20.72;52.52;99975.00;254117;1101;115341;-67
2021/08/25 12:06:42;;;;;;;2.58;1.60;;;;;;;20.93;52.79;99961.10;254461;1101;114524;-67
2021/08/25 12:11:55;;;;;;;;;;;;;;;20.80;51.98;99944.50;254275;1104;114986;-67
2021/08/25 12:17:06;;;;;;;3.28;1.43;;;;;;;20.47;52.65;99946.43;254745;1103;103927;-67
2021/08/25 12:22:25;;;;;;;1.70;1.60;;;;;;;20.04;52.64;99942.16;254220;1102;117007;-67
2021/08/25 12:27:44;;;;;;;1.78;1.65;;;;;;;19.98;52.46;99921.67;254551;1104;116231;-67
2021/08/25 12:33:07;;;;;;;2.63;1.90;;;;;;;19.88;53.27;99925.31;254431;1101;116201;-67
2021/08/25 12:38:12;;;;;;;2.85;1.98;;;;;;;20.04;53.30;99915.10;254253;1101;115081;-68
2021/08/25 12:43:16;;;;;;;1.90;1.80;;;;;;;19.90;52.78;99903.38;254940;1101;115490;-68
2021/08/25 12:48:18;;;;;;;2.20;1.78;;;;;;;19.81;53.34;99895.14;254336;1101;116499;-66
2021/08/25 12:53:24;;;;;;;5.73;2.15;;;;;;;20.11;52.78;99878.46;255128;1102;116167;-67
2021/08/25 12:58:28;;;;;;;2.45;2.25;;;;;;;20.37;52.92;99870.77;254104;1101;115898;-67
2021/08/25 13:03:31;;;;;;;4.30;1.90;;;;;;;20.53;51.96;99884.03;254499;1096;116272;-66
2021/08/25 13:08:35;;;;;;;3.30;2.28;;;;;;;20.60;51.70;99873.63;255799;1097;115102;-66
2021/08/25 13:13:38;;;;;;;3.15;1.85;;;;;;;20.40;51.73;99866.67;254872;1101;115437;-68
2021/08/25 13:18:42;;;;;;;2.90;2.25;;;;;;;20.46;51.58;99857.36;254202;1102;115203;-66
2021/08/25 13:23:46;;;;;;;3.50;2.75;;;;;;;20.53;51.19;99856.95;254200;1102;115834;-68
2021/08/25 13:28:49;;;;;;;2.60;2.27;;;;;;;20.47;51.65;99840.82;256769;1101;115307;-68
2021/08/25 13:33:52;;;;;;;3.13;2.77;;;;;;;20.27;51.61;99832.19;256681;1101;118541;-68
2021/08/25 13:38:56;;;;;;;5.68;3.25;;;;;;;20.35;51.80;99817.98;257095;1102;114929;-68
2021/08/25 13:43:59;;;;;;;4.75;2.63;;;;;;;20.35;51.38;99815.28;256117;1102;115575;-66
2021/08/25 13:49:02;;;;;;;2.83;2.48;;;;;;;20.05;51.79;99814.69;255074;1102;116237;-66
2021/08/25 13:54:05;;;;;;;3.95;3.13;;;;;;;19.84;51.83;99797.98;253949;1103;116225;-67
2021/08/25 13:59:08;;;;;;;4.15;3.15;;;;;;;19.85;52.60;99787.97;255609;1104;115836;-67
2021/08/25 14:04:11;;;;;;;2.85;2.33;;;;;;;19.98;52.14;99779.08;254191;1097;116014;-66
2021/08/25 14:09:14;;;;;;;5.53;3.77;;;;;;;19.87;52.85;99771.44;254421;1104;115915;-66
2021/08/25 14:14:18;;;;;;;6.25;3.45;;;;;;;19.72;52.25;99764.36;254562;1103;118135;-66
2021/08/25 14:19:21;;;;;;;5.85;3.33;;;;;;;19.50;52.61;99764.93;254950;1104;116072;-66
2021/08/25 14:24:28;;;;;;;6.07;3.43;;;;;;;19.52;52.80;99751.95;254841;1096;116307;-67
2021/08/25 14:29:31;;;;;;;4.48;3.58;;;;;;;19.64;53.12;99736.07;254545;1096;116575;-65
2021/08/25 14:34:34;;;;;;;5.10;3.65;;;;;;;19.74;51.69;99733.22;254555;1101;116193;-66
2021/08/25 14:39:36;;;;;;;3.35;3.05;;;;;;;19.80;52.64;99726.63;254479;1104;116511;-66
2021/08/25 14:44:39;;;;;;;5.45;2.90;;;;;;;19.86;52.35;99730.06;254964;1101;116459;-67
2021/08/25 14:49:42;;;;;;;5.85;3.20;;;;;;;19.84;52.08;99711.42;255189;1101;115915;-67
2021/08/25 14:54:45;;;;;;;4.65;2.98;;;;;;;19.72;52.07;99700.25;254246;1101;117410;-68
2021/08/25 14:59:48;;;;;;;5.30;3.28;;;;;;;19.53;51.84;99694.09;254820;1101;117653;-67
2021/08/25 15:04:51;;;;;;;3.48;2.65;;;;;;;19.26;51.58;99688.53;255538;1103;117178;-67
2021/08/25 15:09:54;;;;;;;4.60;3.08;;;;;;;19.14;52.01;99678.16;255842;1096;116845;-66
2021/08/25 15:14:57;;;;;;;6.38;2.90;;;;;;;19.07;52.02;99681.21;254169;1103;115271;-67
2021/08/25 15:19:59;;;;;;;7.25;3.88;;;;;;;18.84;52.27;99673.98;254993;1102;115615;-67
2021/08/25 15:25:03;;;;;;;5.00;3.47;;;;;;;18.83;52.68;99661.56;256209;1101;116081;-67
2021/08/25 15:30:07;;;;;;;4.00;2.55;;;;;;;18.79;52.71;99668.64;254334;1104;116536;-66
2021/08/25 15:35:13;;;;;;;2.63;2.18;;;;;;;18.74;52.37;99655.20;257203;1101;116183;-68
2021/08/25 15:40:17;;;;;;;5.87;3.70;;;;;;;18.60;52.76;99648.92;257177;1101;115747;-67
2021/08/25 15:45:20;;;;;;;5.30;2.97;;;;;;;18.55;52.88;99635.45;256588;1101;115444;-68
2021/08/25 15:50:23;;;;;;;5.78;3.23;;;;;;;18.55;53.45;99630.05;254338;1101;116911;-69
2021/08/25 15:55:26;;;;;;;3.98;3.08;;;;;;;18.47;53.40;99626.89;255824;1097;117339;-66
2021/08/25 16:00:29;;;;;;;7.95;3.30;;;;;;;18.36;53.20;99608.41;255550;1101;116042;-66
2021/08/25 16:05:31;;;;;;;5.47;3.27;;;;;;;18.19;53.52;99608.89;254660;1102;115195;-66
2021/08/25 16:10:34;;;;;;;4.77;3.07;;;;;;;17.99;53.77;99585.66;254287;1102;115524;-68
2021/08/25 16:15:37;;;;;;;7.55;2.85;;;;;;;17.89;54.23;99574.17;255135;1102;115206;-66
2021/08/25 16:20:42;;;;;;;4.75;3.88;;;;;;;17.75;54.53;99569.45;254085;1101;115993;-66
2021/08/25 16:25:45;;;;;;;5.05;2.90;;;;;;;17.63;54.44;99571.72;255256;1101;116311;-68
2021/08/25 16:30:48;;;;;;;3.70;2.50;;;;;;;17.49;54.82;99565.38;254161;1101;115666;-67
2021/08/25 16:35:52;;;;;;;5.95;3.60;;;;;;;17.40;55.71;99567.91;255785;1101;115917;-69
2021/08/25 16:40:55;;;;;;;5.35;3.83;;;;;;;17.32;55.53;99554.23;254212;1101;115403;-66
2021/08/25 16:45:58;;;;;;;8.40;3.35;;;;;;;17.16;56.15;99548.97;256244;1101;114955;-67
2021/08/25 16:51:01;;;;;;;4.62;3.02;;;;;;;16.90;56.54;99550.25;254867;1103;115305;-65
2021/08/25 16:56:04;;;;;;;5.25;3.33;;;;;;;16.63;57.24;99537.22;254572;1101;116000;-66
2021/08/25 17:01:06;;;;;;;2.88;2.43;;;;;;;16.31;57.55;99534.98;255313;1099;116475;-66
2021/08/25 17:06:10;;;;;;;6.15;3.23;;;;;;;16.03;58.60;99530.28;254513;1101;116218;-68
2021/08/25 17:11:14;;;;;;;4.50;2.80;;;;;;;15.88;59.37;99522.30;254187;1104;116176;-68
2021/08/25 17:16:19;;;;;;;3.30;2.53;;;;;;;15.68;59.88;99515.89;255952;1103;114980;-67
2021/08/25 17:21:22;;;;;;;6.75;3.83;;;;;;;15.45;60.31;99508.40;257285;1101;117328;-66
2021/08/25 17:26:25;;;;;;;9.10;4.80;;;;;;;15.34;60.43;99506.80;257185;1102;116249;-67
2021/08/25 17:31:30;;;;;;;7.63;3.90;;;;;;;15.29;60.78;99490.69;257329;1102;115068;-66
2021/08/25 17:36:33;;;;;;;6.60;3.68;;;;;;;15.29;61.50;99488.00;257323;1101;116126;-66
2021/08/25 17:41:36;;;;;;;6.33;3.50;;;;;;;15.20;61.38;99486.97;257354;1102;115329;-65
2021/08/25 17:46:39;;;;;;;7.37;4.73;;;;;;;15.10;61.77;99469.79;257222;1101;115423;-65
2021/08/25 17:51:42;;;;;;;6.67;4.10;;;;;;;15.03;61.57;99469.25;255100;1101;115932;-67
2021/08/25 17:56:45;;;;;;;8.93;4.50;;;;;;;15.01;62.27;99463.34;254396;1101;114970;-67
2021/08/25 18:01:51;;;;;;;5.93;4.43;;;;;;;14.97;62.45;99467.67;256707;1101;115736;-66
2021/08/25 18:06:55;;;;;;;6.33;3.60;;;;;;;14.90;62.18;99456.40;255600;1097;115417;-65
2021/08/25 18:11:58;;;;;;;6.67;4.77;;;;;;;14.91;62.78;99459.89;256484;1101;114690;-65
2021/08/25 18:17:00;;;;;;;8.90;4.73;;;;;;;14.92;62.97;99440.03;254700;1102;115398;-65
2021/08/25 18:22:06;;;;;;;7.15;4.88;;;;;;;14.96;63.16;99443.78;255110;1101;116074;-65
2021/08/25 18:27:09;;;;;;;9.70;5.43;;;;;;;14.96;63.34;99444.59;254694;1101;115418;-65
2021/08/25 18:32:12;;;;;;;8.90;5.48;;;;;;;14.89;63.50;99433.32;254314;1101;115641;-65
2021/08/25 18:37:15;;;;;;;11.00;4.90;;;;;;;14.83;63.45;99418.29;255004;1097;115305;-65
2021/08/25 18:42:19;;;;;;;10.63;6.20;;;;;;;14.77;64.42;99408.63;254990;1097;115206;-65
2021/08/25 18:47:22;;;;;;;7.85;5.18;;;;;;;14.77;64.04;99398.70;255312;1101;116379;-66
2021/08/25 18:52:26;;;;;;;10.25;5.63;;;;;;;14.82;64.13;99400.58;254314;1101;115391;-66
2021/08/25 18:57:29;;;;;;;11.38;6.90;;;;;;;14.86;64.07;99393.60;256303;1101;114708;-66
2021/08/25 19:02:32;;;;;;;9.23;5.83;;;;;;;14.82;64.44;99384.48;254364;1101;115869;-67
2021/08/25 19:07:35;;;;;;;8.48;5.70;;;;;;;14.81;64.55;99369.45;255523;1101;114856;-65
2021/08/25 19:12:40;;;;;;;14.05;7.20;;;;;;;14.81;64.36;99366.77;254758;1101;115628;-66
2021/08/25 19:17:44;;;;;;;14.00;7.60;;;;;;;14.77;64.64;99360.34;254297;1101;115454;-66
2021/08/25 19:22:47;;;;;;;10.03;7.23;;;;;;;14.77;64.90;99354.97;255827;1101;115539;-65
2021/08/25 19:27:51;;;;;;;10.53;6.27;;;;;;;14.79;64.82;99348.26;256500;1101;116258;-66
2021/08/25 19:32:55;;;;;;;13.03;7.07;;;;;;;14.81;65.07;99340.74;257213;1101;115012;-67
2021/08/25 19:38:03;;;;;;;8.93;5.48;;;;;;;14.84;64.80;99334.03;257327;1101;116108;-67
2021/08/25 19:43:07;;;;;;;7.90;5.45;;;;;;;14.81;64.78;99334.58;257166;1101;115918;-66
2021/08/25 19:48:10;;;;;;;8.20;5.25;;;;;;;14.78;64.64;99327.87;255482;1101;114610;-66
2021/08/25 19:53:14;;;;;;;8.05;4.73;;;;;;;14.79;64.83;99323.30;256846;1101;116056;-66
2021/08/25 19:58:19;;;;;;;7.63;5.10;;;;;;;14.76;64.93;99316.60;255195;1102;115612;-65
2021/08/25 20:03:23;;;;;;;9.53;4.83;;;;;;;14.80;65.22;99306.13;255240;1101;115136;-65
2021/08/25 20:08:29;;;;;;;7.38;4.63;;;;;;;14.75;65.26;99309.63;255973;1101;114738;-66
2021/08/25 20:13:36;;;;;;;10.70;5.37;;;;;;;14.75;65.00;99295.41;255547;1101;115870;-65
2021/08/25 20:18:53;;;;;;;7.95;4.85;;;;;;;14.73;64.91;99289.51;255199;1102;115174;-66
2021/08/25 20:23:57;;;;;;;9.78;4.93;;;;;;;14.71;65.41;99283.61;254897;1104;117427;-64
2021/08/25 20:29:04;;;;;;;10.75;5.95;;;;;;;14.71;65.19;99286.30;254927;1103;115677;-66
2021/08/25 20:34:08;;;;;;;10.50;5.43;;;;;;;14.69;65.80;99278.52;254240;1103;175267;-65
2021/08/25 20:39:11;;;;;;;10.80;6.13;;;;;;;14.66;65.42;99272.92;255366;1104;115252;-65
2021/08/25 20:44:15;;;;;;;14.28;6.83;;;;;;;14.64;65.44;99261.66;254270;1101;115608;-66
2021/08/25 20:49:18;;;;;;;8.43;5.38;;;;;;;14.61;65.71;99262.20;255122;1101;115559;-66
2021/08/25 20:54:21;;;;;;;10.28;5.50;;;;;;;14.58;65.61;99252.81;254278;1101;114832;-66
2021/08/25 20:59:26;;;;;;;9.70;5.95;;;;;;;14.56;66.13;99246.11;254400;1102;115807;-66
2021/08/25 21:04:29;;;;;;;12.78;5.90;;;;;;;14.55;66.06;99236.45;254669;1102;116508;-67
2021/08/25 21:09:35;;;;;;;11.38;4.48;;;;;;;14.54;66.09;99232.97;254219;1104;115064;-65
2021/08/25 21:14:41;;;;;;;10.35;5.33;;;;;;;14.54;66.13;99226.80;254826;1103;114942;-65
2021/08/25 21:19:44;;;;;;;9.67;5.53;;;;;;;14.52;66.11;99212.86;254782;1103;116939;-64
2021/08/25 21:24:47;;;;;;;7.63;4.80;;;;;;;14.53;66.34;99209.11;257203;1101;116556;-65
2021/08/25 21:29:51;;;;;;;12.27;6.23;;;;;;;14.52;66.84;99194.89;254908;1101;116010;-66
2021/08/25 21:34:54;;;;;;;4.78;3.10;;;;;;;14.56;67.24;99181.74;256391;1101;116701;-65
2021/08/25 21:39:56;;;;;;;12.33;5.68;;;;;;;14.61;66.77;99187.09;256186;1101;117929;-65
2021/08/25 21:45:00;;;;;;;8.68;5.73;;;;;;;14.61;67.18;99174.48;256237;1097;116984;-66
2021/08/25 21:50:03;;;;;;;7.58;4.85;;;;;;;14.62;66.86;99176.09;257612;1101;117199;-65
2021/08/25 21:55:06;;;;;;;6.48;4.80;;;;;;;14.65;67.17;99155.96;256652;1101;115862;-65
2021/08/25 22:00:17;;;;;;;9.30;5.65;;;;;;;14.67;67.01;99151.13;254911;1104;116618;-64
2021/08/25 22:05:21;;;;;;;8.93;5.30;;;;;;;14.67;66.91;99143.88;255669;1103;116008;-64
2021/08/25 22:10:25;;;;;;;7.25;5.30;;;;;;;14.60;67.19;99137.20;255276;1096;116612;-65
2021/08/25 22:15:29;;;;;;;7.98;5.55;;;;;;;14.61;67.58;99128.08;255575;1101;115848;-66
2021/08/25 22:20:31;;;;;;;10.18;6.05;;;;;;;14.59;67.32;99114.14;255062;1102;115929;-65
2021/08/25 22:25:34;;;;;;;6.93;5.68;;;;;;;14.58;67.31;99107.17;255117;1101;115307;-65
2021/08/25 22:30:38;;;;;;;12.67;6.67;;;;;;;14.56;67.34;99102.08;254343;1101;115558;-65
2021/08/25 22:35:41;;;;;;;7.50;5.70;;;;;;;14.52;67.79;99082.25;255005;1101;116510;-66
2021/08/25 22:40:44;;;;;;;11.35;6.03;;;;;;;14.50;67.73;99076.36;254510;1097;115263;-65
2021/08/25 22:45:48;;;;;;;12.05;6.40;;;;;;;14.51;67.64;99071.80;255484;1104;116356;-66
2021/08/25 22:50:51;;;;;;;12.58;7.45;;;;;;;14.51;67.74;99055.71;254190;1096;115517;-67
2021/08/25 22:55:54;;;;;;;7.00;6.05;;;;;;;14.48;67.86;99055.18;254394;1097;115069;-66
2021/08/25 23:00:58;;;;;;;6.30;4.38;;;;;;;14.46;67.74;99049.29;254390;1101;115377;-66
2021/08/25 23:06:09;;;;;;;9.60;6.00;;;;;;;14.43;67.95;99040.99;254708;1103;115542;-68
2021/08/25 23:11:12;;;;;;;11.03;5.37;;;;;;;14.44;67.85;99032.67;254429;1096;114977;-66
2021/08/25 23:16:15;;;;;;;8.23;5.03;;;;;;;14.45;68.51;99020.07;255327;1101;115714;-67